sensor_id;sensor_type;location;lat;lon;timestamp;P1;durP1;ratioP1;P2;durP2;ratioP2
8478;SDS011;4276;49.354;6.804;2023-07-13T00:00:56;2.40;;;2.00;;
8478;SDS011;4276;49.354;6.804;2023-07-13T00:03:22;2.08;;;1.90;;
8478;SDS011;4276;49.354;6.804;2023-07-13T00:05:56;2.10;;;1.90;;
8478;SDS011;4276;49.354;6.804;2023-07-13T00:08:24;3.67;;;1.98;;
8478;SDS011;4276;49.354;6.804;2023-07-13T00:10:51;3.15;;;2.20;;
8478;SDS011;4276;49.354;6.804;2023-07-13T00:13:20;2.30;;;1.73;;
8478;SDS011;4276;49.354;6.804;2023-07-13T00:15:47;2.42;;;2.00;;
8478;SDS011;4276;49.354;6.804;2023-07-13T00:18:13;5.00;;;2.05;;
8478;SDS011;4276;49.354;6.804;2023-07-13T00:20:40;3.35;;;1.92;;
8478;SDS011;4276;49.354;6.804;2023-07-13T00:23:07;2.10;;;2.00;;
8478;SDS011;4276;49.354;6.804;2023-07-13T00:25:34;4.10;;;1.90;;
8478;SDS011;4276;49.354;6.804;2023-07-13T00:28:01;2.15;;;2.00;;
8478;SDS011;4276;49.354;6.804;2023-07-13T00:30:28;2.38;;;1.88;;
8478;SDS011;4276;49.354;6.804;2023-07-13T00:32:55;4.10;;;1.88;;
8478;SDS011;4276;49.354;6.804;2023-07-13T00:35:41;1.75;;;1.65;;
8478;SDS011;4276;49.354;6.804;2023-07-13T00:38:10;1.80;;;1.70;;
8478;SDS011;4276;49.354;6.804;2023-07-13T00:40:37;2.40;;;2.00;;
8478;SDS011;4276;49.354;6.804;2023-07-13T00:43:08;1.90;;;1.80;;
8478;SDS011;4276;49.354;6.804;2023-07-13T00:48:10;2.28;;;1.90;;
8478;SDS011;4276;49.354;6.804;2023-07-13T00:50:37;3.03;;;2.00;;
8478;SDS011;4276;49.354;6.804;2023-07-13T00:53:07;3.05;;;1.98;;
8478;SDS011;4276;49.354;6.804;2023-07-13T00:55:34;1.80;;;1.70;;
8478;SDS011;4276;49.354;6.804;2023-07-13T00:58:01;2.33;;;2.10;;
8478;SDS011;4276;49.354;6.804;2023-07-13T01:00:28;2.35;;;2.08;;
8478;SDS011;4276;49.354;6.804;2023-07-13T01:02:55;2.72;;;2.25;;
8478;SDS011;4276;49.354;6.804;2023-07-13T01:05:22;2.03;;;1.92;;
8478;SDS011;4276;49.354;6.804;2023-07-13T01:07:49;2.45;;;2.25;;
8478;SDS011;4276;49.354;6.804;2023-07-13T01:10:21;3.05;;;2.50;;
8478;SDS011;4276;49.354;6.804;2023-07-13T01:12:48;3.35;;;2.42;;
8478;SDS011;4276;49.354;6.804;2023-07-13T01:18:15;3.45;;;2.17;;
8478;SDS011;4276;49.354;6.804;2023-07-13T01:20:51;2.72;;;2.10;;
8478;SDS011;4276;49.354;6.804;2023-07-13T01:23:22;2.47;;;2.20;;
8478;SDS011;4276;49.354;6.804;2023-07-13T01:25:50;2.63;;;2.40;;
8478;SDS011;4276;49.354;6.804;2023-07-13T01:28:17;2.42;;;2.20;;
8478;SDS011;4276;49.354;6.804;2023-07-13T01:30:45;2.20;;;2.03;;
8478;SDS011;4276;49.354;6.804;2023-07-13T01:33:16;2.00;;;1.90;;
8478;SDS011;4276;49.354;6.804;2023-07-13T01:35:44;3.67;;;2.20;;
8478;SDS011;4276;49.354;6.804;2023-07-13T01:38:13;2.58;;;2.17;;
8478;SDS011;4276;49.354;6.804;2023-07-13T01:40:41;2.20;;;2.10;;
8478;SDS011;4276;49.354;6.804;2023-07-13T01:43:08;2.47;;;2.10;;
8478;SDS011;4276;49.354;6.804;2023-07-13T01:45:34;2.47;;;2.22;;
8478;SDS011;4276;49.354;6.804;2023-07-13T01:48:02;3.17;;;2.00;;
8478;SDS011;4276;49.354;6.804;2023-07-13T01:50:28;2.55;;;2.35;;
8478;SDS011;4276;49.354;6.804;2023-07-13T01:52:55;2.10;;;1.83;;
8478;SDS011;4276;49.354;6.804;2023-07-13T01:55:21;2.30;;;2.10;;
8478;SDS011;4276;49.354;6.804;2023-07-13T01:57:48;2.42;;;1.85;;
8478;SDS011;4276;49.354;6.804;2023-07-13T02:00:15;2.00;;;1.73;;
8478;SDS011;4276;49.354;6.804;2023-07-13T02:02:41;2.15;;;2.00;;
8478;SDS011;4276;49.354;6.804;2023-07-13T02:05:11;2.40;;;2.20;;
8478;SDS011;4276;49.354;6.804;2023-07-13T02:07:39;2.00;;;1.90;;
8478;SDS011;4276;49.354;6.804;2023-07-13T02:10:06;2.30;;;2.10;;
8478;SDS011;4276;49.354;6.804;2023-07-13T02:12:34;3.50;;;2.20;;
8478;SDS011;4276;49.354;6.804;2023-07-13T02:15:01;2.30;;;2.10;;
8478;SDS011;4276;49.354;6.804;2023-07-13T02:17:27;2.55;;;1.85;;
8478;SDS011;4276;49.354;6.804;2023-07-13T02:19:54;2.33;;;2.15;;
8478;SDS011;4276;49.354;6.804;2023-07-13T02:22:21;1.90;;;1.80;;
8478;SDS011;4276;49.354;6.804;2023-07-13T02:24:49;3.40;;;2.22;;
8478;SDS011;4276;49.354;6.804;2023-07-13T02:27:16;2.30;;;2.10;;
8478;SDS011;4276;49.354;6.804;2023-07-13T02:29:42;2.08;;;1.90;;
8478;SDS011;4276;49.354;6.804;2023-07-13T02:32:08;2.67;;;2.30;;
8478;SDS011;4276;49.354;6.804;2023-07-13T02:34:35;2.25;;;1.92;;
8478;SDS011;4276;49.354;6.804;2023-07-13T02:37:02;2.20;;;2.10;;
8478;SDS011;4276;49.354;6.804;2023-07-13T02:39:28;1.98;;;1.88;;
8478;SDS011;4276;49.354;6.804;2023-07-13T02:41:55;2.70;;;2.50;;
8478;SDS011;4276;49.354;6.804;2023-07-13T02:44:21;2.95;;;1.98;;
8478;SDS011;4276;49.354;6.804;2023-07-13T02:46:48;2.75;;;2.33;;
8478;SDS011;4276;49.354;6.804;2023-07-13T02:49:14;2.92;;;2.20;;
8478;SDS011;4276;49.354;6.804;2023-07-13T02:51:41;2.47;;;2.38;;
8478;SDS011;4276;49.354;6.804;2023-07-13T02:54:08;2.33;;;2.10;;
8478;SDS011;4276;49.354;6.804;2023-07-13T02:56:36;2.40;;;2.20;;
8478;SDS011;4276;49.354;6.804;2023-07-13T02:59:05;5.28;;;2.28;;
8478;SDS011;4276;49.354;6.804;2023-07-13T03:01:31;3.33;;;2.10;;
8478;SDS011;4276;49.354;6.804;2023-07-13T03:04:01;2.47;;;2.30;;
8478;SDS011;4276;49.354;6.804;2023-07-13T03:06:28;2.38;;;2.17;;
8478;SDS011;4276;49.354;6.804;2023-07-13T03:08:56;2.53;;;2.30;;
8478;SDS011;4276;49.354;6.804;2023-07-13T03:11:23;2.53;;;2.33;;
8478;SDS011;4276;49.354;6.804;2023-07-13T03:13:49;2.88;;;2.30;;
8478;SDS011;4276;49.354;6.804;2023-07-13T03:16:16;2.33;;;2.05;;
8478;SDS011;4276;49.354;6.804;2023-07-13T03:18:45;2.40;;;2.20;;
8478;SDS011;4276;49.354;6.804;2023-07-13T03:21:12;2.53;;;2.33;;
8478;SDS011;4276;49.354;6.804;2023-07-13T03:23:39;2.17;;;2.03;;
8478;SDS011;4276;49.354;6.804;2023-07-13T03:26:07;2.58;;;2.38;;
8478;SDS011;4276;49.354;6.804;2023-07-13T03:28:38;2.30;;;2.10;;
8478;SDS011;4276;49.354;6.804;2023-07-13T03:31:15;3.97;;;2.17;;
8478;SDS011;4276;49.354;6.804;2023-07-13T03:33:44;3.42;;;2.45;;
8478;SDS011;4276;49.354;6.804;2023-07-13T03:36:20;3.28;;;2.42;;
8478;SDS011;4276;49.354;6.804;2023-07-13T03:38:49;4.03;;;2.40;;
8478;SDS011;4276;49.354;6.804;2023-07-13T03:41:17;3.13;;;2.30;;
8478;SDS011;4276;49.354;6.804;2023-07-13T03:43:44;2.67;;;2.40;;
8478;SDS011;4276;49.354;6.804;2023-07-13T03:46:10;2.47;;;2.20;;
8478;SDS011;4276;49.354;6.804;2023-07-13T03:48:37;3.75;;;2.50;;
8478;SDS011;4276;49.354;6.804;2023-07-13T03:51:06;2.42;;;2.33;;
8478;SDS011;4276;49.354;6.804;2023-07-13T03:53:32;2.60;;;2.30;;
8478;SDS011;4276;49.354;6.804;2023-07-13T03:55:59;2.45;;;2.35;;
8478;SDS011;4276;49.354;6.804;2023-07-13T03:58:26;2.55;;;2.40;;
8478;SDS011;4276;49.354;6.804;2023-07-13T04:01:00;2.58;;;2.15;;
8478;SDS011;4276;49.354;6.804;2023-07-13T04:03:28;3.10;;;2.45;;
8478;SDS011;4276;49.354;6.804;2023-07-13T04:05:56;2.90;;;2.60;;
8478;SDS011;4276;49.354;6.804;2023-07-13T04:08:27;2.92;;;2.58;;
8478;SDS011;4276;49.354;6.804;2023-07-13T04:10:54;2.60;;;2.40;;
8478;SDS011;4276;49.354;6.804;2023-07-13T04:13:21;2.80;;;2.40;;
8478;SDS011;4276;49.354;6.804;2023-07-13T04:15:48;2.75;;;2.55;;
8478;SDS011;4276;49.354;6.804;2023-07-13T04:18:14;2.92;;;2.47;;
8478;SDS011;4276;49.354;6.804;2023-07-13T04:20:41;2.70;;;2.50;;
8478;SDS011;4276;49.354;6.804;2023-07-13T04:23:08;3.08;;;2.70;;
8478;SDS011;4276;49.354;6.804;2023-07-13T04:25:34;2.60;;;2.40;;
8478;SDS011;4276;49.354;6.804;2023-07-13T04:28:01;2.67;;;2.33;;
8478;SDS011;4276;49.354;6.804;2023-07-13T04:30:29;3.25;;;2.75;;
8478;SDS011;4276;49.354;6.804;2023-07-13T04:32:55;3.22;;;2.80;;
8478;SDS011;4276;49.354;6.804;2023-07-13T04:35:22;4.13;;;2.80;;
8478;SDS011;4276;49.354;6.804;2023-07-13T04:37:49;3.00;;;2.70;;
8478;SDS011;4276;49.354;6.804;2023-07-13T04:40:17;3.80;;;2.42;;
8478;SDS011;4276;49.354;6.804;2023-07-13T04:42:44;3.50;;;2.65;;
8478;SDS011;4276;49.354;6.804;2023-07-13T04:45:12;2.88;;;2.63;;
8478;SDS011;4276;49.354;6.804;2023-07-13T04:47:39;3.55;;;3.25;;
8478;SDS011;4276;49.354;6.804;2023-07-13T04:50:06;3.40;;;3.10;;
8478;SDS011;4276;49.354;6.804;2023-07-13T04:52:33;3.97;;;2.70;;
8478;SDS011;4276;49.354;6.804;2023-07-13T04:55:00;2.70;;;2.45;;
8478;SDS011;4276;49.354;6.804;2023-07-13T04:57:27;3.10;;;2.80;;
8478;SDS011;4276;49.354;6.804;2023-07-13T04:59:53;4.82;;;3.20;;
8478;SDS011;4276;49.354;6.804;2023-07-13T05:02:20;2.95;;;2.60;;
8478;SDS011;4276;49.354;6.804;2023-07-13T05:04:47;5.05;;;2.50;;
8478;SDS011;4276;49.354;6.804;2023-07-13T05:07:14;3.13;;;2.83;;
8478;SDS011;4276;49.354;6.804;2023-07-13T05:09:41;3.90;;;2.58;;
8478;SDS011;4276;49.354;6.804;2023-07-13T05:12:07;2.80;;;2.60;;
8478;SDS011;4276;49.354;6.804;2023-07-13T05:14:35;3.00;;;2.80;;
8478;SDS011;4276;49.354;6.804;2023-07-13T05:17:01;3.17;;;2.83;;
8478;SDS011;4276;49.354;6.804;2023-07-13T05:19:28;3.22;;;2.92;;
8478;SDS011;4276;49.354;6.804;2023-07-13T05:21:54;3.05;;;2.70;;
8478;SDS011;4276;49.354;6.804;2023-07-13T05:24:21;2.70;;;2.40;;
8478;SDS011;4276;49.354;6.804;2023-07-13T05:26:51;5.45;;;2.58;;
8478;SDS011;4276;49.354;6.804;2023-07-13T05:29:17;3.70;;;3.40;;
8478;SDS011;4276;49.354;6.804;2023-07-13T05:31:44;5.15;;;3.00;;
8478;SDS011;4276;49.354;6.804;2023-07-13T05:34:10;2.75;;;2.55;;
8478;SDS011;4276;49.354;6.804;2023-07-13T05:36:37;6.03;;;2.60;;
8478;SDS011;4276;49.354;6.804;2023-07-13T05:39:03;3.20;;;2.90;;
8478;SDS011;4276;49.354;6.804;2023-07-13T05:41:30;2.58;;;2.40;;
8478;SDS011;4276;49.354;6.804;2023-07-13T05:43:56;4.75;;;3.17;;
8478;SDS011;4276;49.354;6.804;2023-07-13T05:46:25;4.72;;;2.90;;
8478;SDS011;4276;49.354;6.804;2023-07-13T05:48:52;3.30;;;2.80;;
8478;SDS011;4276;49.354;6.804;2023-07-13T05:51:18;3.95;;;2.72;;
8478;SDS011;4276;49.354;6.804;2023-07-13T05:53:45;3.35;;;2.70;;
8478;SDS011;4276;49.354;6.804;2023-07-13T05:56:11;3.60;;;2.90;;
8478;SDS011;4276;49.354;6.804;2023-07-13T05:58:38;2.78;;;2.45;;
8478;SDS011;4276;49.354;6.804;2023-07-13T06:01:05;2.70;;;2.50;;
8478;SDS011;4276;49.354;6.804;2023-07-13T06:03:33;3.60;;;3.30;;
8478;SDS011;4276;49.354;6.804;2023-07-13T06:05:59;3.35;;;2.90;;
8478;SDS011;4276;49.354;6.804;2023-07-13T06:08:29;3.20;;;2.90;;
8478;SDS011;4276;49.354;6.804;2023-07-13T06:11:01;4.25;;;2.90;;
8478;SDS011;4276;49.354;6.804;2023-07-13T06:13:28;4.60;;;3.33;;
8478;SDS011;4276;49.354;6.804;2023-07-13T06:15:54;3.45;;;3.08;;
8478;SDS011;4276;49.354;6.804;2023-07-13T06:18:21;2.72;;;2.53;;
8478;SDS011;4276;49.354;6.804;2023-07-13T06:20:48;4.03;;;2.40;;
8478;SDS011;4276;49.354;6.804;2023-07-13T06:23:14;2.72;;;2.53;;
8478;SDS011;4276;49.354;6.804;2023-07-13T06:25:41;5.13;;;2.58;;
8478;SDS011;4276;49.354;6.804;2023-07-13T06:28:07;2.83;;;2.33;;
8478;SDS011;4276;49.354;6.804;2023-07-13T06:30:34;2.67;;;2.40;;
8478;SDS011;4276;49.354;6.804;2023-07-13T06:33:00;3.80;;;2.35;;
8478;SDS011;4276;49.354;6.804;2023-07-13T06:35:27;2.60;;;2.30;;
8478;SDS011;4276;49.354;6.804;2023-07-13T06:37:53;2.28;;;2.10;;
8478;SDS011;4276;49.354;6.804;2023-07-13T06:40:20;3.75;;;2.33;;
8478;SDS011;4276;49.354;6.804;2023-07-13T06:42:46;3.15;;;2.42;;
8478;SDS011;4276;49.354;6.804;2023-07-13T06:45:13;3.63;;;2.17;;
8478;SDS011;4276;49.354;6.804;2023-07-13T06:47:39;3.42;;;2.03;;
8478;SDS011;4276;49.354;6.804;2023-07-13T06:50:06;2.90;;;2.22;;
8478;SDS011;4276;49.354;6.804;2023-07-13T06:52:33;2.70;;;1.70;;
8478;SDS011;4276;49.354;6.804;2023-07-13T06:54:59;4.60;;;2.30;;
8478;SDS011;4276;49.354;6.804;2023-07-13T06:57:26;2.08;;;1.90;;
8478;SDS011;4276;49.354;6.804;2023-07-13T06:59:53;2.72;;;1.48;;
8478;SDS011;4276;49.354;6.804;2023-07-13T07:02:20;1.98;;;1.20;;
8478;SDS011;4276;49.354;6.804;2023-07-13T07:04:46;3.63;;;1.60;;
8478;SDS011;4276;49.354;6.804;2023-07-13T07:07:13;1.67;;;1.58;;
8478;SDS011;4276;49.354;6.804;2023-07-13T07:09:39;2.58;;;1.30;;
8478;SDS011;4276;49.354;6.804;2023-07-13T07:12:06;2.33;;;1.33;;
8478;SDS011;4276;49.354;6.804;2023-07-13T07:14:33;2.30;;;1.30;;
8478;SDS011;4276;49.354;6.804;2023-07-13T07:17:00;4.03;;;1.98;;
8478;SDS011;4276;49.354;6.804;2023-07-13T07:19:29;2.40;;;1.60;;
8478;SDS011;4276;49.354;6.804;2023-07-13T07:21:56;2.70;;;1.92;;
8478;SDS011;4276;49.354;6.804;2023-07-13T07:24:22;3.88;;;2.28;;
8478;SDS011;4276;49.354;6.804;2023-07-13T07:26:49;3.30;;;2.22;;
8478;SDS011;4276;49.354;6.804;2023-07-13T07:29:18;4.10;;;2.42;;
8478;SDS011;4276;49.354;6.804;2023-07-13T07:31:48;5.55;;;2.47;;
8478;SDS011;4276;49.354;6.804;2023-07-13T07:34:30;5.97;;;2.35;;
8478;SDS011;4276;49.354;6.804;2023-07-13T07:36:59;2.47;;;2.00;;
8478;SDS011;4276;49.354;6.804;2023-07-13T07:39:30;5.10;;;2.50;;
8478;SDS011;4276;49.354;6.804;2023-07-13T07:41:56;4.45;;;2.63;;
8478;SDS011;4276;49.354;6.804;2023-07-13T07:44:23;5.65;;;2.58;;
8478;SDS011;4276;49.354;6.804;2023-07-13T07:46:50;8.25;;;3.33;;
8478;SDS011;4276;49.354;6.804;2023-07-13T07:49:16;3.72;;;2.28;;
8478;SDS011;4276;49.354;6.804;2023-07-13T07:51:43;3.30;;;2.35;;
8478;SDS011;4276;49.354;6.804;2023-07-13T07:54:09;4.55;;;3.33;;
8478;SDS011;4276;49.354;6.804;2023-07-13T07:56:43;3.30;;;2.53;;
8478;SDS011;4276;49.354;6.804;2023-07-13T07:59:12;6.63;;;2.85;;
8478;SDS011;4276;49.354;6.804;2023-07-13T08:01:42;6.05;;;2.75;;
8478;SDS011;4276;49.354;6.804;2023-07-13T08:04:29;4.88;;;1.90;;
8478;SDS011;4276;49.354;6.804;2023-07-13T08:06:58;2.30;;;1.60;;
8478;SDS011;4276;49.354;6.804;2023-07-13T08:09:25;3.15;;;1.52;;
8478;SDS011;4276;49.354;6.804;2023-07-13T08:11:52;4.15;;;1.85;;
8478;SDS011;4276;49.354;6.804;2023-07-13T08:14:23;2.35;;;1.58;;
8478;SDS011;4276;49.354;6.804;2023-07-13T08:17:04;1.80;;;1.35;;
8478;SDS011;4276;49.354;6.804;2023-07-13T08:19:31;3.67;;;1.60;;
8478;SDS011;4276;49.354;6.804;2023-07-13T08:21:57;2.05;;;1.50;;
8478;SDS011;4276;49.354;6.804;2023-07-13T08:24:24;2.97;;;1.42;;
8478;SDS011;4276;49.354;6.804;2023-07-13T08:26:51;2.30;;;1.65;;
8478;SDS011;4276;49.354;6.804;2023-07-13T08:29:18;3.50;;;2.03;;
8478;SDS011;4276;49.354;6.804;2023-07-13T08:31:45;3.55;;;1.42;;
8478;SDS011;4276;49.354;6.804;2023-07-13T08:34:11;2.72;;;1.40;;
8478;SDS011;4276;49.354;6.804;2023-07-13T08:36:41;2.75;;;1.65;;
8478;SDS011;4276;49.354;6.804;2023-07-13T08:39:07;3.30;;;1.88;;
8478;SDS011;4276;49.354;6.804;2023-07-13T08:41:34;2.10;;;1.52;;
8478;SDS011;4276;49.354;6.804;2023-07-13T08:44:01;2.50;;;1.75;;
8478;SDS011;4276;49.354;6.804;2023-07-13T08:46:32;2.63;;;1.70;;
8478;SDS011;4276;49.354;6.804;2023-07-13T08:51:49;3.35;;;2.05;;
8478;SDS011;4276;49.354;6.804;2023-07-13T08:54:22;3.63;;;1.75;;
8478;SDS011;4276;49.354;6.804;2023-07-13T08:56:50;3.92;;;1.70;;
8478;SDS011;4276;49.354;6.804;2023-07-13T08:59:20;2.75;;;1.50;;
8478;SDS011;4276;49.354;6.804;2023-07-13T09:01:58;3.13;;;1.58;;
8478;SDS011;4276;49.354;6.804;2023-07-13T09:04:33;3.58;;;1.80;;
8478;SDS011;4276;49.354;6.804;2023-07-13T09:15:24;3.92;;;1.65;;
8478;SDS011;4276;49.354;6.804;2023-07-13T09:17:52;2.58;;;1.50;;
8478;SDS011;4276;49.354;6.804;2023-07-13T09:23:01;3.08;;;1.58;;
8478;SDS011;4276;49.354;6.804;2023-07-13T09:25:33;2.28;;;1.52;;
8478;SDS011;4276;49.354;6.804;2023-07-13T09:28:02;3.30;;;1.60;;
8478;SDS011;4276;49.354;6.804;2023-07-13T09:30:38;2.67;;;1.60;;
8478;SDS011;4276;49.354;6.804;2023-07-13T09:33:11;4.28;;;1.50;;
8478;SDS011;4276;49.354;6.804;2023-07-13T09:35:38;4.78;;;1.90;;
8478;SDS011;4276;49.354;6.804;2023-07-13T09:38:12;2.97;;;1.60;;
8478;SDS011;4276;49.354;6.804;2023-07-13T09:46:39;2.90;;;1.63;;
8478;SDS011;4276;49.354;6.804;2023-07-13T09:49:10;4.38;;;1.88;;
8478;SDS011;4276;49.354;6.804;2023-07-13T09:51:40;5.07;;;1.80;;
8478;SDS011;4276;49.354;6.804;2023-07-13T09:54:20;3.25;;;1.70;;
8478;SDS011;4276;49.354;6.804;2023-07-13T09:56:47;3.10;;;1.60;;
8478;SDS011;4276;49.354;6.804;2023-07-13T09:59:18;2.65;;;1.88;;
8478;SDS011;4276;49.354;6.804;2023-07-13T10:01:46;3.30;;;1.73;;
8478;SDS011;4276;49.354;6.804;2023-07-13T10:04:16;2.95;;;1.63;;
8478;SDS011;4276;49.354;6.804;2023-07-13T10:06:47;4.03;;;1.67;;
8478;SDS011;4276;49.354;6.804;2023-07-13T10:09:17;3.72;;;1.50;;
8478;SDS011;4276;49.354;6.804;2023-07-13T10:11:45;2.08;;;1.38;;
8478;SDS011;4276;49.354;6.804;2023-07-13T10:14:18;1.15;;;1.02;;
8478;SDS011;4276;49.354;6.804;2023-07-13T10:16:51;2.10;;;1.30;;
8478;SDS011;4276;49.354;6.804;2023-07-13T10:19:25;3.28;;;1.33;;
8478;SDS011;4276;49.354;6.804;2023-07-13T10:21:54;1.35;;;1.23;;
8478;SDS011;4276;49.354;6.804;2023-07-13T10:24:26;3.20;;;1.50;;
8478;SDS011;4276;49.354;6.804;2023-07-13T10:27:15;3.05;;;1.60;;
8478;SDS011;4276;49.354;6.804;2023-07-13T10:29:48;2.40;;;1.50;;
8478;SDS011;4276;49.354;6.804;2023-07-13T10:32:20;2.80;;;1.60;;
8478;SDS011;4276;49.354;6.804;2023-07-13T10:34:50;3.97;;;1.67;;
8478;SDS011;4276;49.354;6.804;2023-07-13T10:37:22;1.88;;;1.42;;
8478;SDS011;4276;49.354;6.804;2023-07-13T10:39:51;2.17;;;1.33;;
8478;SDS011;4276;49.354;6.804;2023-07-13T10:42:28;2.17;;;1.40;;
8478;SDS011;4276;49.354;6.804;2023-07-13T10:44:56;3.67;;;1.60;;
8478;SDS011;4276;49.354;6.804;2023-07-13T10:47:23;2.80;;;1.38;;
8478;SDS011;4276;49.354;6.804;2023-07-13T10:49:51;2.10;;;1.50;;
8478;SDS011;4276;49.354;6.804;2023-07-13T10:58:21;1.77;;;1.33;;
8478;SDS011;4276;49.354;6.804;2023-07-13T11:01:03;2.22;;;1.40;;
8478;SDS011;4276;49.354;6.804;2023-07-13T11:03:30;2.88;;;1.52;;
8478;SDS011;4276;49.354;6.804;2023-07-13T11:06:07;4.25;;;1.50;;
8478;SDS011;4276;49.354;6.804;2023-07-13T11:11:32;4.65;;;1.95;;
8478;SDS011;4276;49.354;6.804;2023-07-13T11:14:03;4.93;;;2.00;;
8478;SDS011;4276;49.354;6.804;2023-07-13T11:16:50;4.43;;;2.00;;
8478;SDS011;4276;49.354;6.804;2023-07-13T11:24:49;2.10;;;1.80;;
8478;SDS011;4276;49.354;6.804;2023-07-13T11:27:27;3.70;;;2.30;;
8478;SDS011;4276;49.354;6.804;2023-07-13T11:30:18;3.92;;;2.38;;
8478;SDS011;4276;49.354;6.804;2023-07-13T11:32:51;2.72;;;1.70;;
8478;SDS011;4276;49.354;6.804;2023-07-13T11:35:23;3.63;;;1.60;;
8478;SDS011;4276;49.354;6.804;2023-07-13T11:37:50;2.13;;;1.55;;
8478;SDS011;4276;49.354;6.804;2023-07-13T11:40:17;2.45;;;1.70;;
8478;SDS011;4276;49.354;6.804;2023-07-13T11:42:44;3.00;;;1.90;;
8478;SDS011;4276;49.354;6.804;2023-07-13T11:45:20;4.18;;;2.08;;
8478;SDS011;4276;49.354;6.804;2023-07-13T11:48:03;2.70;;;1.85;;
8478;SDS011;4276;49.354;6.804;2023-07-13T11:50:30;5.38;;;2.20;;
8478;SDS011;4276;49.354;6.804;2023-07-13T11:52:57;2.05;;;1.67;;
8478;SDS011;4276;49.354;6.804;2023-07-13T11:55:25;3.78;;;1.50;;
8478;SDS011;4276;49.354;6.804;2023-07-13T11:57:53;2.97;;;1.73;;
8478;SDS011;4276;49.354;6.804;2023-07-13T12:00:25;3.40;;;2.30;;
8478;SDS011;4276;49.354;6.804;2023-07-13T12:02:53;3.90;;;2.05;;
8478;SDS011;4276;49.354;6.804;2023-07-13T12:05:22;4.35;;;1.65;;
8478;SDS011;4276;49.354;6.804;2023-07-13T12:07:49;3.97;;;1.90;;
8478;SDS011;4276;49.354;6.804;2023-07-13T12:10:20;2.60;;;2.10;;
8478;SDS011;4276;49.354;6.804;2023-07-13T12:15:50;3.97;;;2.08;;
8478;SDS011;4276;49.354;6.804;2023-07-13T12:18:19;2.95;;;2.13;;
8478;SDS011;4276;49.354;6.804;2023-07-13T12:20:46;2.05;;;1.38;;
8478;SDS011;4276;49.354;6.804;2023-07-13T12:23:30;3.25;;;1.50;;
8478;SDS011;4276;49.354;6.804;2023-07-13T12:26:00;1.67;;;1.38;;
8478;SDS011;4276;49.354;6.804;2023-07-13T12:28:31;2.08;;;1.58;;
8478;SDS011;4276;49.354;6.804;2023-07-13T12:30:58;1.95;;;1.40;;
8478;SDS011;4276;49.354;6.804;2023-07-13T12:33:28;2.00;;;1.45;;
8478;SDS011;4276;49.354;6.804;2023-07-13T12:35:55;3.35;;;1.98;;
8478;SDS011;4276;49.354;6.804;2023-07-13T12:38:24;2.10;;;1.27;;
8478;SDS011;4276;49.354;6.804;2023-07-13T12:40:51;3.45;;;1.75;;
8478;SDS011;4276;49.354;6.804;2023-07-13T12:43:19;2.35;;;1.50;;
8478;SDS011;4276;49.354;6.804;2023-07-13T12:46:01;3.17;;;1.40;;
8478;SDS011;4276;49.354;6.804;2023-07-13T12:48:29;1.80;;;1.50;;
8478;SDS011;4276;49.354;6.804;2023-07-13T12:51:13;3.70;;;1.40;;
8478;SDS011;4276;49.354;6.804;2023-07-13T12:53:42;3.75;;;1.60;;
8478;SDS011;4276;49.354;6.804;2023-07-13T12:56:19;4.25;;;1.73;;
8478;SDS011;4276;49.354;6.804;2023-07-13T12:58:49;2.72;;;1.60;;
8478;SDS011;4276;49.354;6.804;2023-07-13T13:01:25;2.55;;;1.38;;
8478;SDS011;4276;49.354;6.804;2023-07-13T13:03:53;1.48;;;1.33;;
8478;SDS011;4276;49.354;6.804;2023-07-13T13:06:26;2.85;;;1.58;;
8478;SDS011;4276;49.354;6.804;2023-07-13T13:08:58;2.20;;;1.15;;
8478;SDS011;4276;49.354;6.804;2023-07-13T13:11:26;1.73;;;1.20;;
8478;SDS011;4276;49.354;6.804;2023-07-13T13:13:53;2.92;;;1.40;;
8478;SDS011;4276;49.354;6.804;2023-07-13T13:16:21;1.77;;;1.38;;
8478;SDS011;4276;49.354;6.804;2023-07-13T13:18:49;2.47;;;1.20;;
8478;SDS011;4276;49.354;6.804;2023-07-13T13:21:17;1.50;;;1.40;;
8478;SDS011;4276;49.354;6.804;2023-07-13T13:23:44;1.80;;;1.45;;
8478;SDS011;4276;49.354;6.804;2023-07-13T13:26:13;3.25;;;1.42;;
8478;SDS011;4276;49.354;6.804;2023-07-13T13:28:42;1.40;;;1.30;;
8478;SDS011;4276;49.354;6.804;2023-07-13T13:31:10;1.20;;;0.98;;
8478;SDS011;4276;49.354;6.804;2023-07-13T13:33:39;1.90;;;0.93;;
8478;SDS011;4276;49.354;6.804;2023-07-13T13:36:17;2.42;;;1.20;;
8478;SDS011;4276;49.354;6.804;2023-07-13T13:38:45;2.42;;;1.20;;
8478;SDS011;4276;49.354;6.804;2023-07-13T13:41:13;2.53;;;1.17;;
8478;SDS011;4276;49.354;6.804;2023-07-13T13:43:40;1.65;;;1.10;;
8478;SDS011;4276;49.354;6.804;2023-07-13T13:46:19;1.67;;;1.23;;
8478;SDS011;4276;49.354;6.804;2023-07-13T13:48:51;1.15;;;0.90;;
8478;SDS011;4276;49.354;6.804;2023-07-13T13:51:21;2.40;;;1.30;;
8478;SDS011;4276;49.354;6.804;2023-07-13T13:53:49;2.28;;;1.30;;
8478;SDS011;4276;49.354;6.804;2023-07-13T13:56:17;3.20;;;1.52;;
8478;SDS011;4276;49.354;6.804;2023-07-13T13:58:45;3.00;;;1.33;;
8478;SDS011;4276;49.354;6.804;2023-07-13T14:01:30;3.90;;;1.52;;
8478;SDS011;4276;49.354;6.804;2023-07-13T14:03:57;1.95;;;1.10;;
8478;SDS011;4276;49.354;6.804;2023-07-13T14:06:25;1.80;;;0.93;;
8478;SDS011;4276;49.354;6.804;2023-07-13T14:08:52;3.17;;;1.58;;
8478;SDS011;4276;49.354;6.804;2023-07-13T14:11:21;1.70;;;1.60;;
8478;SDS011;4276;49.354;6.804;2023-07-13T14:13:49;2.00;;;1.20;;
8478;SDS011;4276;49.354;6.804;2023-07-13T14:16:20;3.53;;;1.73;;
8478;SDS011;4276;49.354;6.804;2023-07-13T14:18:48;2.30;;;1.27;;
8478;SDS011;4276;49.354;6.804;2023-07-13T14:21:16;1.98;;;1.10;;
8478;SDS011;4276;49.354;6.804;2023-07-13T14:23:45;1.63;;;1.30;;
8478;SDS011;4276;49.354;6.804;2023-07-13T14:26:16;1.10;;;0.90;;
8478;SDS011;4276;49.354;6.804;2023-07-13T14:28:45;1.60;;;1.25;;
8478;SDS011;4276;49.354;6.804;2023-07-13T14:31:14;2.90;;;1.52;;
8478;SDS011;4276;49.354;6.804;2023-07-13T14:33:42;4.82;;;1.40;;
8478;SDS011;4276;49.354;6.804;2023-07-13T14:36:21;2.40;;;1.45;;
8478;SDS011;4276;49.354;6.804;2023-07-13T14:38:52;4.47;;;1.35;;
8478;SDS011;4276;49.354;6.804;2023-07-13T14:41:19;2.50;;;1.30;;
8478;SDS011;4276;49.354;6.804;2023-07-13T14:43:46;2.40;;;1.08;;
8478;SDS011;4276;49.354;6.804;2023-07-13T14:46:31;2.00;;;0.95;;
8478;SDS011;4276;49.354;6.804;2023-07-13T14:49:23;3.65;;;1.40;;
8478;SDS011;4276;49.354;6.804;2023-07-13T14:51:51;2.60;;;1.23;;
8478;SDS011;4276;49.354;6.804;2023-07-13T14:54:18;1.35;;;1.15;;
8478;SDS011;4276;49.354;6.804;2023-07-13T14:56:44;2.28;;;1.38;;
8478;SDS011;4276;49.354;6.804;2023-07-13T14:59:11;4.00;;;1.00;;
8478;SDS011;4276;49.354;6.804;2023-07-13T15:01:38;3.70;;;1.33;;
8478;SDS011;4276;49.354;6.804;2023-07-13T15:04:05;1.05;;;1.02;;
8478;SDS011;4276;49.354;6.804;2023-07-13T15:06:51;1.90;;;1.30;;
8478;SDS011;4276;49.354;6.804;2023-07-13T15:09:22;4.07;;;1.80;;
8478;SDS011;4276;49.354;6.804;2023-07-13T15:11:52;3.58;;;1.45;;
8478;SDS011;4276;49.354;6.804;2023-07-13T15:14:20;1.52;;;1.20;;
8478;SDS011;4276;49.354;6.804;2023-07-13T15:16:48;3.75;;;1.30;;
8478;SDS011;4276;49.354;6.804;2023-07-13T15:19:16;2.65;;;1.33;;
8478;SDS011;4276;49.354;6.804;2023-07-13T15:21:43;2.40;;;1.77;;
8478;SDS011;4276;49.354;6.804;2023-07-13T15:24:10;3.22;;;1.40;;
8478;SDS011;4276;49.354;6.804;2023-07-13T15:26:37;2.65;;;1.42;;
8478;SDS011;4276;49.354;6.804;2023-07-13T15:29:04;2.40;;;1.42;;
8478;SDS011;4276;49.354;6.804;2023-07-13T15:31:31;1.63;;;1.50;;
8478;SDS011;4276;49.354;6.804;2023-07-13T15:33:59;4.90;;;1.70;;
8478;SDS011;4276;49.354;6.804;2023-07-13T15:36:26;2.50;;;2.25;;
8478;SDS011;4276;49.354;6.804;2023-07-13T15:38:53;2.80;;;2.33;;
8478;SDS011;4276;49.354;6.804;2023-07-13T15:41:25;2.45;;;2.03;;
8478;SDS011;4276;49.354;6.804;2023-07-13T15:43:53;4.57;;;1.70;;
8478;SDS011;4276;49.354;6.804;2023-07-13T15:46:22;3.05;;;2.20;;
8478;SDS011;4276;49.354;6.804;2023-07-13T15:48:50;2.75;;;2.25;;
8478;SDS011;4276;49.354;6.804;2023-07-13T15:51:19;3.88;;;1.95;;
8478;SDS011;4276;49.354;6.804;2023-07-13T15:53:48;3.33;;;1.70;;
8478;SDS011;4276;49.354;6.804;2023-07-13T15:56:23;1.40;;;1.30;;
8478;SDS011;4276;49.354;6.804;2023-07-13T15:58:51;1.70;;;1.55;;
8478;SDS011;4276;49.354;6.804;2023-07-13T16:01:18;4.75;;;3.45;;
8478;SDS011;4276;49.354;6.804;2023-07-13T16:03:46;4.25;;;3.03;;
8478;SDS011;4276;49.354;6.804;2023-07-13T16:06:22;5.38;;;4.68;;
8478;SDS011;4276;49.354;6.804;2023-07-13T16:08:51;2.85;;;1.80;;